Time;durP1;ratioP1;P1;durP2;ratioP2;P2;SDS_P1;SDS_P2;PMS_P1;PMS_P2;Temp;Humidity;BMP_temperature;BMP_pressure;BME280_temperature;BME280_humidity;BME280_pressure;Samples;Min_cycle;Max_cycle;Signal;HPM_P1;HPM_P2
2022/08/24 00:02:23;;;;;;;6.17;5.60;;;19.20;99.90;;;;;;5094759;28;20497;-72
2022/08/24 00:04:51;;;;;;;8.83;6.20;;;19.10;99.90;;;;;;5094557;28;20473;-73
2022/08/24 00:07:18;;;;;;;5.30;4.90;;;19.10;99.90;;;;;;5094780;28;20467;-73
2022/08/24 00:09:47;;;;;;;8.27;4.97;;;19.00;99.90;;;;;;5094736;28;20827;-73
2022/08/24 00:12:15;;;;;;;5.93;5.23;;;19.10;99.90;;;;;;5094659;28;20448;-74
2022/08/24 00:14:42;;;;;;;6.37;5.53;;;19.10;99.90;;;;;;5094574;28;20467;-73
2022/08/24 00:17:09;;;;;;;5.87;5.47;;;19.10;99.90;;;;;;5094644;28;20451;-74
2022/08/24 00:19:36;;;;;;;6.20;5.63;;;;;;;;;;5094476;28;20436;-72
2022/08/24 00:22:03;;;;;;;5.37;4.87;;;19.00;99.90;;;;;;5094454;28;20440;-73
2022/08/24 00:24:30;;;;;;;8.50;5.70;;;19.00;99.90;;;;;;5094446;28;20521;-72
2022/08/24 00:26:58;;;;;;;6.30;5.47;;;19.00;99.90;;;;;;5094163;28;20436;-72
2022/08/24 00:29:26;;;;;;;6.97;5.90;;;19.00;99.90;;;;;;5094079;28;20966;-72
2022/08/24 00:31:52;;;;;;;7.77;5.30;;;18.90;99.90;;;;;;5094176;28;20464;-72
2022/08/24 00:34:19;;;;;;;8.70;5.77;;;18.90;99.90;;;;;;5093908;28;20452;-72
2022/08/24 00:36:46;;;;;;;7.10;6.53;;;18.90;99.90;;;;;;5093726;28;20451;-72
2022/08/24 00:39:13;;;;;;;6.67;5.27;;;18.90;99.90;;;;;;5093677;28;20501;-73
2022/08/24 00:41:42;;;;;;;12.10;6.63;;;18.90;99.90;;;;;;5093803;28;20478;-73
2022/08/24 00:44:12;;;;;;;6.10;5.50;;;18.90;99.90;;;;;;5094080;28;20444;-73
2022/08/24 00:46:45;;;;;;;7.80;6.30;;;18.90;99.90;;;;;;5093741;28;20501;-73
2022/08/24 00:49:20;;;;;;;12.43;6.00;;;18.80;99.90;;;;;;5094138;28;20432;-73
2022/08/24 00:51:54;;;;;;;8.57;5.60;;;18.80;99.90;;;;;;5094030;28;20467;-72
2022/08/24 00:54:23;;;;;;;6.20;5.60;;;18.80;99.90;;;;;;5094042;28;20793;-73
2022/08/24 00:56:54;;;;;;;8.73;6.30;;;18.80;99.90;;;;;;5094000;28;20444;-73
2022/08/24 00:59:25;;;;;;;9.83;6.67;;;18.80;99.90;;;;;;5094005;28;20787;-73
2022/08/24 01:01:54;;;;;;;9.07;6.60;;;18.80;99.90;;;;;;5094100;28;20538;-73
2022/08/24 01:04:28;;;;;;;6.53;6.00;;;18.80;99.90;;;;;;5094381;28;20450;-72
2022/08/24 01:06:54;;;;;;;15.80;7.00;;;18.70;99.90;;;;;;5095000;28;20432;-72
2022/08/24 01:09:21;;;;;;;10.43;7.70;;;18.70;99.90;;;;;;5094211;28;20502;-73
2022/08/24 01:11:49;;;;;;;9.07;7.47;;;18.70;99.90;;;;;;5095100;28;20487;-73
2022/08/24 01:14:17;;;;;;;8.23;7.30;;;18.70;99.90;;;;;;5094624;28;20479;-72
2022/08/24 01:19:44;;;;;;;9.87;8.17;;;18.70;99.90;;;;;;5051037;28;20868;-72
2022/08/24 01:22:24;;;;;;;9.73;8.93;;;18.70;99.90;;;;;;5084342;28;20447;-72
2022/08/24 01:24:52;;;;;;;8.80;7.90;;;18.60;99.90;;;;;;5093518;28;20498;-72
2022/08/24 01:27:19;;;;;;;8.17;7.47;;;18.60;99.90;;;;;;5093411;28;20899;-72
2022/08/24 01:29:47;;;;;;;7.17;6.00;;;18.70;99.90;;;;;;5093271;28;20451;-72
2022/08/24 01:32:14;;;;;;;7.97;6.70;;;18.50;99.90;;;;;;5093384;28;20475;-73
2022/08/24 01:34:41;;;;;;;7.70;6.20;;;18.50;99.90;;;;;;5093307;28;20479;-73
2022/08/24 01:37:10;;;;;;;8.87;6.40;;;18.50;99.90;;;;;;5093237;28;20454;-73
2022/08/24 01:39:42;;;;;;;7.37;6.00;;;18.50;99.90;;;;;;5092949;28;20447;-73
2022/08/24 01:42:12;;;;;;;7.23;6.57;;;18.50;99.90;;;;;;5093254;28;20434;-74
2022/08/24 01:44:40;;;;;;;9.00;6.00;;;18.50;99.90;;;;;;5094145;28;20451;-73
2022/08/24 01:47:09;;;;;;;7.37;6.60;;;18.50;99.90;;;;;;5092937;28;20939;-73
2022/08/24 01:49:39;;;;;;;7.33;6.70;;;18.50;99.90;;;;;;5095651;28;20446;-73
2022/08/24 01:52:07;;;;;;;6.77;6.27;;;18.50;99.90;;;;;;5097484;28;20934;-72
2022/08/24 01:54:34;;;;;;;11.90;7.07;;;18.50;99.90;;;;;;5096999;28;20447;-73
2022/08/24 01:57:02;;;;;;;7.90;7.07;;;18.50;99.90;;;;;;5097342;28;20458;-72
2022/08/24 01:59:30;;;;;;;8.10;7.30;;;18.50;99.90;;;;;;5097382;28;20444;-72
2022/08/24 02:02:02;;;;;;;10.53;7.90;;;18.50;99.90;;;;;;5096907;28;20467;-72
2022/08/24 02:04:29;;;;;;;16.40;8.30;;;18.50;99.90;;;;;;5097111;28;20537;-72
2022/08/24 02:06:56;;;;;;;9.73;8.13;;;18.50;99.90;;;;;;5097206;28;20448;-72
2022/08/24 02:09:22;;;;;;;12.50;9.70;;;18.40;99.90;;;;;;5096783;28;20939;-72
2022/08/24 02:11:49;;;;;;;13.27;10.03;;;18.40;99.90;;;;;;5096969;28;20467;-72
2022/08/24 02:14:18;;;;;;;14.60;10.20;;;18.40;99.90;;;;;;5096980;28;20451;-72
2022/08/24 02:16:46;;;;;;;17.97;12.10;;;18.30;99.90;;;;;;5096861;28;20487;-73
2022/08/24 02:19:13;;;;;;;17.10;11.53;;;18.40;99.90;;;;;;5096894;28;20451;-72
2022/08/24 02:21:40;;;;;;;23.03;14.03;;;18.60;99.90;;;;;;5096446;28;20983;-72
2022/08/24 02:24:08;;;;;;;25.43;13.77;;;18.50;99.90;;;;;;5096782;28;20811;-72
2022/08/24 02:26:35;;;;;;;27.20;14.00;;;18.40;99.90;;;;;;5096357;28;20439;-72
2022/08/24 02:29:01;;;;;;;32.00;17.77;;;18.40;99.90;;;;;;5096627;28;20452;-73
2022/08/24 02:31:28;;;;;;;27.43;15.93;;;18.30;99.90;;;;;;5096312;28;21033;-72
2022/08/24 02:33:56;;;;;;;27.60;15.80;;;18.30;99.90;;;;;;5096607;28;20481;-73
2022/08/24 02:36:23;;;;;;;35.23;19.40;;;18.30;99.90;;;;;;5096481;28;20475;-74
2022/08/24 02:38:49;;;;;;;47.30;17.93;;;18.30;99.90;;;;;;5096528;28;20443;-74
2022/08/24 02:41:16;;;;;;;37.03;19.33;;;18.30;99.90;;;;;;5096105;28;20472;-73
2022/08/24 02:43:43;;;;;;;39.37;21.10;;;18.30;99.90;;;;;;5096154;28;20963;-74
2022/08/24 02:46:18;;;;;;;33.23;18.10;;;18.30;99.90;;;;;;5096410;28;20435;-73
2022/08/24 02:48:45;;;;;;;32.83;18.80;;;18.40;99.90;;;;;;5096424;28;20519;-73
2022/08/24 02:51:20;;;;;;;35.73;21.80;;;18.40;99.90;;;;;;5096371;28;20479;-73
2022/08/24 02:53:47;;;;;;;44.87;21.73;;;18.40;99.90;;;;;;5096434;28;20431;-73
2022/08/24 02:56:14;;;;;;;41.33;21.80;;;18.40;99.90;;;;;;5096266;28;20511;-73
2022/08/24 02:58:42;;;;;;;45.67;21.00;;;18.40;99.90;;;;;;5096124;28;20440;-72
2022/08/24 03:01:09;;;;;;;46.60;21.97;;;18.30;99.90;;;;;;5094760;28;20901;-73
2022/08/24 03:03:36;;;;;;;47.90;22.63;;;18.30;99.90;;;;;;5096001;28;20829;-72
2022/08/24 03:06:03;;;;;;;43.67;22.50;;;18.30;99.90;;;;;;5095877;28;20448;-73
2022/08/24 03:08:31;;;;;;;43.27;22.73;;;18.30;99.90;;;;;;5095871;28;20448;-73
2022/08/24 03:10:59;;;;;;;38.53;22.07;;;18.30;99.90;;;;;;5095727;28;20470;-73
2022/08/24 03:13:26;;;;;;;37.00;21.67;;;18.20;99.90;;;;;;5095768;28;20443;-73
2022/08/24 03:15:54;;;;;;;36.70;20.77;;;18.20;99.90;;;;;;5095287;28;20475;-72
2022/08/24 03:18:21;;;;;;;46.77;23.70;;;18.20;99.90;;;;;;5095639;28;20452;-73
2022/08/24 03:20:48;;;;;;;41.07;22.40;;;18.20;99.90;;;;;;5095624;28;20468;-72
2022/08/24 03:23:15;;;;;;;43.13;24.00;;;18.20;99.90;;;;;;5095624;28;20453;-72
2022/08/24 03:25:43;;;;;;;36.83;20.77;;;18.10;99.90;;;;;;5096665;28;20444;-72
2022/08/24 03:28:10;;;;;;;39.00;21.80;;;18.20;99.90;;;;;;5097721;28;20539;-72
2022/08/24 03:30:38;;;;;;;39.93;23.90;;;18.10;99.90;;;;;;5097600;28;20478;-72
2022/08/24 03:33:04;;;;;;;45.23;22.50;;;18.20;99.90;;;;;;5096068;28;20817;-72
2022/08/24 03:35:32;;;;;;;40.47;21.77;;;18.10;99.90;;;;;;5095189;28;21017;-73
2022/08/24 03:37:59;;;;;;;43.23;23.07;;;18.20;99.90;;;;;;5095485;28;20452;-72
2022/08/24 03:40:26;;;;;;;36.63;21.57;;;18.20;99.90;;;;;;5117521;22;20484;-76
2022/08/24 03:42:55;;;;;;;38.23;22.63;;;18.20;99.90;;;;;;5095710;28;20448;-75
2022/08/24 03:45:22;;;;;;;41.37;22.03;;;18.20;99.90;;;;;;5095536;28;20436;-76
2022/08/24 03:47:49;;;;;;;34.97;20.70;;;18.20;99.90;;;;;;5095520;28;20505;-76
2022/08/24 03:50:16;;;;;;;42.50;22.33;;;17.90;99.90;;;;;;5095334;28;20448;-76
2022/08/24 03:52:43;;;;;;;37.57;22.73;;;18.20;99.90;;;;;;5095319;28;20448;-76
2022/08/24 03:55:10;;;;;;;35.73;21.20;;;18.20;99.90;;;;;;5094801;28;20973;-76
2022/08/24 03:57:37;;;;;;;37.03;21.87;;;18.30;99.90;;;;;;5095276;28;20456;-76
2022/08/24 04:00:08;;;;;;;35.87;21.40;;;18.30;99.90;;;;;;5095777;28;20447;-76
2022/08/24 04:02:35;;;;;;;38.57;20.90;;;18.20;99.90;;;;;;5095631;28;20904;-76
2022/08/24 04:05:02;;;;;;;37.77;21.60;;;18.20;99.90;;;;;;5094919;28;20994;-76
2022/08/24 04:07:30;;;;;;;39.93;24.10;;;18.20;99.90;;;;;;5095595;28;20444;-76
2022/08/24 04:09:56;;;;;;;35.27;21.47;;;18.20;99.90;;;;;;5095003;28;20498;-76
2022/08/24 04:12:23;;;;;;;34.27;19.73;;;18.20;99.90;;;;;;5094464;28;20577;-76
2022/08/24 04:14:52;;;;;;;39.23;22.83;;;18.20;99.90;;;;;;5094803;28;20448;-76
2022/08/24 04:17:20;;;;;;;37.50;21.87;;;18.20;99.90;;;;;;5094686;28;20995;-76
2022/08/24 04:19:57;;;;;;;32.70;21.87;;;18.20;99.90;;;;;;5094643;28;20816;-75
2022/08/24 04:22:24;;;;;;;38.97;22.77;;;18.20;99.90;;;;;;5095051;28;20467;-75
2022/08/24 04:24:51;;;;;;;37.23;22.50;;;18.30;99.90;;;;;;5094590;28;20535;-76
2022/08/24 04:27:18;;;;;;;37.60;22.47;;;18.20;99.90;;;;;;5094556;28;20440;-76
2022/08/24 04:29:45;;;;;;;37.13;23.17;;;18.20;99.90;;;;;;5094467;28;20443;-76
2022/08/24 04:32:14;;;;;;;46.83;22.73;;;18.20;99.90;;;;;;5094598;28;20805;-76
2022/08/24 04:34:42;;;;;;;35.37;21.30;;;18.30;99.90;;;;;;5095013;28;20448;-76
2022/08/24 04:37:09;;;;;;;43.13;22.77;;;18.30;99.90;;;;;;5094345;28;20503;-76
2022/08/24 04:39:35;;;;;;;36.13;23.13;;;18.30;99.90;;;;;;5094252;28;20517;-75
2022/08/24 04:42:02;;;;;;;37.40;22.20;;;18.30;99.90;;;;;;5094005;28;20503;-76
2022/08/24 04:44:30;;;;;;;33.90;23.10;;;18.30;99.90;;;;;;5094141;28;20448;-77
2022/08/24 04:46:56;;;;;;;34.40;21.73;;;18.30;99.90;;;;;;5094136;28;20452;-77
2022/08/24 04:49:23;;;;;;;46.10;23.57;;;18.30;99.90;;;;;;5094089;28;20470;-76
2022/08/24 04:51:51;;;;;;;36.87;23.70;;;18.30;99.90;;;;;;5093996;28;20464;-75
2022/08/24 04:54:18;;;;;;;36.27;21.97;;;18.30;99.90;;;;;;5094031;28;20448;-76
2022/08/24 04:56:46;;;;;;;31.60;22.00;;;18.40;99.90;;;;;;5094643;28;20487;-76
2022/08/24 04:59:13;;;;;;;35.40;21.73;;;18.40;99.90;;;;;;5093904;28;20475;-75
2022/08/24 05:01:43;;;;;;;32.63;22.43;;;18.40;99.90;;;;;;5094296;28;20471;-77
2022/08/24 05:04:09;;;;;;;41.07;24.80;;;18.50;99.90;;;;;;5093644;28;20429;-76
2022/08/24 05:06:36;;;;;;;36.00;20.63;;;18.50;99.90;;;;;;5094783;28;20772;-76
2022/08/24 05:09:05;;;;;;;31.07;22.67;;;18.70;99.90;;;;;;5094222;28;20951;-77
2022/08/24 05:11:32;;;;;;;32.03;22.47;;;18.50;99.90;;;;;;5094447;28;20471;-76
2022/08/24 05:13:59;;;;;;;31.50;20.07;;;;;;;;;;5093925;28;20458;-77
2022/08/24 05:16:27;;;;;;;32.27;22.70;;;18.60;99.90;;;;;;5093508;28;21029;-76
2022/08/24 05:18:55;;;;;;;34.13;22.30;;;18.60;99.90;;;;;;5093961;28;20459;-77
2022/08/24 05:21:24;;;;;;;30.47;19.87;;;18.70;99.90;;;;;;5093540;28;20463;-76
2022/08/24 05:23:51;;;;;;;36.13;20.77;;;18.70;99.90;;;;;;5092822;28;20452;-77
2022/08/24 05:26:23;;;;;;;31.20;20.40;;;18.70;99.90;;;;;;5093471;28;20444;-76
2022/08/24 05:28:50;;;;;;;36.33;24.30;;;18.80;99.90;;;;;;5093487;28;20528;-76
2022/08/24 05:31:19;;;;;;;42.60;25.57;;;18.80;99.90;;;;;;5093351;28;20478;-76
2022/08/24 05:33:47;;;;;;;30.90;21.67;;;18.90;99.90;;;;;;5093288;28;20444;-76
2022/08/24 05:36:17;;;;;;;33.50;21.73;;;19.00;99.90;;;;;;5093083;28;20487;-76
2022/08/24 05:38:44;;;;;;;33.33;22.50;;;19.00;99.90;;;;;;5093425;28;20464;-76
2022/08/24 05:41:11;;;;;;;31.20;21.37;;;19.10;99.90;;;;;;5092645;28;20487;-77
2022/08/24 05:43:39;;;;;;;31.40;21.10;;;19.10;99.90;;;;;;5092837;28;20440;-76
2022/08/24 05:46:06;;;;;;;30.50;22.23;;;19.20;99.90;;;;;;5093261;28;20447;-76
2022/08/24 05:48:34;;;;;;;35.30;21.67;;;19.20;99.90;;;;;;5093298;28;20451;-76
2022/08/24 05:51:01;;;;;;;35.83;23.47;;;19.30;99.90;;;;;;5093164;28;20467;-76
2022/08/24 05:53:28;;;;;;;32.10;21.10;;;19.30;99.90;;;;;;5092931;28;20448;-77
2022/08/24 05:55:55;;;;;;;31.57;20.07;;;19.40;99.90;;;;;;5093105;28;20455;-76
2022/08/24 05:58:22;;;;;;;30.27;20.87;;;19.50;99.90;;;;;;5092927;28;20800;-76
2022/08/24 06:00:53;;;;;;;30.13;22.40;;;19.70;99.90;;;;;;5093036;28;20468;-78
2022/08/24 06:03:20;;;;;;;35.30;24.93;;;19.70;99.90;;;;;;5093141;28;20932;-77
2022/08/24 06:05:47;;;;;;;33.50;20.80;;;19.80;99.90;;;;;;5092679;28;20484;-77
2022/08/24 06:08:14;;;;;;;38.33;19.57;;;19.90;99.90;;;;;;5092839;28;20662;-76
2022/08/24 06:10:43;;;;;;;26.47;19.90;;;20.10;99.90;;;;;;5092754;28;20479;-76
2022/08/24 06:13:10;;;;;;;29.83;18.73;;;20.10;99.90;;;;;;5093059;28;20856;-76
2022/08/24 06:15:37;;;;;;;30.13;20.20;;;20.00;99.90;;;;;;5093005;28;20444;-76
2022/08/24 06:18:06;;;;;;;29.30;21.93;;;20.00;99.90;;;;;;5092873;28;20476;-76
2022/08/24 06:20:37;;;;;;;27.00;17.57;;;20.10;99.90;;;;;;5092901;28;20463;-76
2022/08/24 06:23:04;;;;;;;30.37;20.10;;;19.90;99.90;;;;;;5093223;28;20427;-77
2022/08/24 06:28:15;;;;;;;32.47;23.20;;;20.00;99.90;;;;;;5092683;28;20942;-76
2022/08/24 06:30:42;;;;;;;29.17;20.23;;;20.00;99.90;;;;;;5092965;28;20499;-76
2022/08/24 06:33:11;;;;;;;21.97;16.97;;;20.00;99.90;;;;;;5092901;28;20448;-76
2022/08/24 06:35:37;;;;;;;25.87;17.80;;;20.20;99.90;;;;;;5094713;28;20963;-76
2022/08/24 06:38:04;;;;;;;21.53;17.27;;;20.30;99.90;;;;;;5096722;28;20475;-76
2022/08/24 06:40:31;;;;;;;22.50;15.73;;;20.10;99.90;;;;;;5096270;28;20578;-76
2022/08/24 06:43:02;;;;;;;23.80;16.37;;;20.00;99.90;;;;;;5096572;28;20451;-77
2022/08/24 06:45:29;;;;;;;22.87;16.23;;;20.00;99.90;;;;;;5096266;28;20515;-76
2022/08/24 06:47:56;;;;;;;28.30;17.70;;;20.00;99.90;;;;;;5096429;28;20877;-76
2022/08/24 06:50:25;;;;;;;20.30;15.67;;;19.90;99.90;;;;;;5096084;28;20471;-75
2022/08/24 06:52:52;;;;;;;19.67;16.43;;;20.00;99.90;;;;;;5096224;28;20447;-76
2022/08/24 06:55:19;;;;;;;26.70;17.33;;;20.00;99.90;;;;;;5096372;28;20447;-76
2022/08/24 06:57:45;;;;;;;22.83;17.60;;;20.10;99.90;;;;;;5096205;28;20850;-76
2022/08/24 07:00:13;;;;;;;27.30;18.00;;;20.00;99.90;;;;;;5096456;28;20432;-76
2022/08/24 07:02:41;;;;;;;22.00;16.63;;;20.10;99.90;;;;;;5096104;28;20447;-76
2022/08/24 07:05:08;;;;;;;22.07;18.50;;;20.10;99.90;;;;;;5096690;28;20526;-76
2022/08/24 07:07:37;;;;;;;22.80;17.30;;;20.20;99.90;;;;;;5096156;28;20812;-76
2022/08/24 07:10:05;;;;;;;25.93;17.00;;;20.50;99.90;;;;;;5096074;28;20459;-75
2022/08/24 07:12:32;;;;;;;21.47;16.40;;;20.40;99.90;;;;;;5096291;28;20559;-76
2022/08/24 07:14:59;;;;;;;22.23;17.67;;;20.50;99.90;;;;;;5096238;28;21012;-77
2022/08/24 07:17:25;;;;;;;22.00;16.97;;;20.50;99.90;;;;;;5096146;28;20488;-76
2022/08/24 07:19:52;;;;;;;28.50;18.30;;;20.40;99.90;;;;;;5096012;28;20443;-76
2022/08/24 07:22:19;;;;;;;22.07;17.93;;;20.50;99.90;;;;;;5096320;28;20836;-76
2022/08/24 07:24:47;;;;;;;19.50;17.17;;;20.60;99.90;;;;;;5096346;28;20813;-76
2022/08/24 07:27:14;;;;;;;19.23;15.60;;;20.80;99.90;;;;;;5095899;28;20444;-76
2022/08/24 07:29:41;;;;;;;19.87;15.13;;;20.80;99.90;;;;;;5095978;28;20444;-77
2022/08/24 07:32:08;;;;;;;23.33;15.63;;;21.00;99.90;;;;;;5098088;28;20478;-76
2022/08/24 07:34:36;;;;;;;20.53;15.93;;;20.90;99.90;;;;;;5103920;28;20497;-76
2022/08/24 07:37:03;;;;;;;23.07;15.83;;;21.10;99.90;;;;;;5102715;28;20483;-76
2022/08/24 07:39:30;;;;;;;25.53;14.73;;;21.20;99.90;;;;;;5101514;28;20447;-76
2022/08/24 07:41:58;;;;;;;20.13;15.70;;;21.20;99.90;;;;;;5101322;28;20475;-77
2022/08/24 07:44:25;;;;;;;17.97;14.37;;;21.00;99.90;;;;;;5100984;28;20517;-77
2022/08/24 07:46:52;;;;;;;16.27;14.57;;;21.00;99.90;;;;;;5099970;28;20924;-76
2022/08/24 07:49:18;;;;;;;20.20;14.20;;;20.90;99.90;;;;;;5102179;28;20440;-76
2022/08/24 07:51:46;;;;;;;16.40;13.90;;;21.00;99.90;;;;;;5099552;28;20830;-77
2022/08/24 07:54:13;;;;;;;18.37;13.77;;;21.10;99.90;;;;;;5098886;28;20447;-76
2022/08/24 07:56:39;;;;;;;32.03;16.03;;;21.10;99.90;;;;;;5098686;28;20479;-76
2022/08/24 07:59:08;;;;;;;19.00;13.80;;;21.20;99.90;;;;;;5098905;28;20443;-76
2022/08/24 08:01:34;;;;;;;16.67;13.70;;;21.10;99.90;;;;;;5097270;28;21108;-77
2022/08/24 08:04:01;;;;;;;16.93;12.23;;;21.00;99.90;;;;;;5096286;28;20444;-77
2022/08/24 08:06:31;;;;;;;18.70;12.93;;;21.00;99.90;;;;;;5096830;28;20463;-77
2022/08/24 08:08:57;;;;;;;15.70;11.90;;;21.20;99.90;;;;;;5095757;28;20805;-77
2022/08/24 08:11:24;;;;;;;14.30;12.70;;;21.10;99.90;;;;;;5095239;28;20468;-77
2022/08/24 08:13:52;;;;;;;14.17;11.50;;;21.30;99.90;;;;;;5095353;28;20448;-77
2022/08/24 08:16:22;;;;;;;17.73;13.90;;;21.60;99.90;;;;;;5094874;28;20468;-77
2022/08/24 08:18:49;;;;;;;13.13;10.73;;;21.70;99.90;;;;;;5094882;28;20491;-77
2022/08/24 08:24:15;;;;;;;17.13;11.50;;;21.50;99.90;;;;;;5050109;28;20432;-76
2022/08/24 08:26:42;;;;;;;14.70;11.87;;;21.50;99.90;;;;;;5095088;28;20443;-77
2022/08/24 08:29:12;;;;;;;15.03;11.70;;;21.60;99.90;;;;;;5094543;28;20435;-77
2022/08/24 08:31:40;;;;;;;17.90;13.07;;;21.70;99.90;;;;;;5094251;28;20468;-77
2022/08/24 08:34:07;;;;;;;15.07;11.13;;;21.70;99.90;;;;;;5095175;28;20435;-77
2022/08/24 08:36:35;;;;;;;16.10;10.87;;;21.70;99.90;;;;;;5094245;28;20435;-76
2022/08/24 08:39:03;;;;;;;13.57;11.23;;;21.50;99.90;;;;;;5094604;28;20450;-77
2022/08/24 08:41:55;;;;;;;15.03;12.40;;;21.40;99.90;;;;;;5093687;28;20475;-77
2022/08/24 08:44:44;;;;;;;14.00;11.67;;;21.30;99.90;;;;;;5094882;28;20428;-77
2022/08/24 08:47:23;;;;;;;19.70;14.10;;;21.30;99.90;;;;;;5094519;28;20785;-76
2022/08/24 08:50:06;;;;;;;19.67;16.30;;;21.20;99.90;;;;;;5093980;28;20432;-77
2022/08/24 08:53:07;;;;;;;17.30;11.23;;;21.30;99.90;;;;;;5094086;28;20459;-77
2022/08/24 08:55:39;;;;;;;16.47;11.60;;;21.40;99.90;;;;;;5073486;28;20477;-78
2022/08/24 08:58:27;;;;;;;13.50;11.57;;;21.60;99.90;;;;;;5093149;28;20552;-77
2022/08/24 09:01:01;;;;;;;16.57;13.33;;;21.70;99.90;;;;;;5093734;28;20471;-76
2022/08/24 09:03:39;;;;;;;16.10;11.70;;;22.20;99.90;;;;;;5093703;28;20439;-76
2022/08/24 09:06:22;;;;;;;12.80;10.67;;;22.00;99.90;;;;;;5093920;28;20432;-77
2022/08/24 09:09:06;;;;;;;14.00;11.00;;;22.20;99.90;;;;;;5093691;28;20841;-77
2022/08/24 09:11:42;;;;;;;10.20;9.17;;;22.00;99.90;;;;;;5093690;28;20502;-76
2022/08/24 09:14:29;;;;;;;13.10;11.10;;;22.00;99.90;;;;;;5093696;28;20420;-76
2022/08/24 09:17:14;;;;;;;12.50;10.30;;;21.90;99.90;;;;;;5075713;28;20451;-77
2022/08/24 09:20:05;;;;;;;13.27;11.13;;;22.00;99.90;;;;;;5093341;28;20489;-76
2022/08/24 09:22:39;;;;;;;12.80;11.50;;;22.10;99.90;;;;;;5093676;28;20432;-77
2022/08/24 09:25:23;;;;;;;12.20;10.90;;;22.20;99.90;;;;;;5093819;28;20455;-77
2022/08/24 09:28:03;;;;;;;13.60;10.43;;;22.40;99.90;;;;;;5093492;28;20431;-77
2022/08/24 09:30:45;;;;;;;18.30;11.70;;;22.20;99.90;;;;;;5093333;28;20955;-77
2022/08/24 09:33:20;;;;;;;12.53;10.53;;;22.10;99.90;;;;;;5093358;28;20442;-76
2022/08/24 09:36:05;;;;;;;12.70;11.03;;;22.20;99.90;;;;;;5093325;28;20803;-77
2022/08/24 09:38:49;;;;;;;17.57;13.73;;;22.30;99.90;;;;;;5093394;28;20468;-77
2022/08/24 09:41:43;;;;;;;15.10;12.67;;;22.10;99.90;;;;;;5106704;22;21055;-71
2022/08/24 09:44:44;;;;;;;18.93;13.43;;;22.10;99.90;;;;;;5092957;28;20432;-72
2022/08/24 09:47:26;;;;;;;13.13;11.10;;;22.00;99.90;;;;;;5092948;28;20517;-71
2022/08/24 09:50:26;;;;;;;17.83;12.50;;;22.20;99.90;;;;;;5092673;28;20428;-72
2022/08/24 09:53:14;;;;;;;14.33;10.97;;;22.50;99.90;;;;;;5040818;28;20513;-72
2022/08/24 09:56:01;;;;;;;16.73;11.73;;;22.50;99.90;;;;;;5072784;28;20429;-73
2022/08/24 09:58:40;;;;;;;15.13;11.60;;;22.50;99.90;;;;;;5072977;28;20468;-72
2022/08/24 10:01:14;;;;;;;16.70;14.60;;;22.50;99.90;;;;;;5073024;28;20471;-71
2022/08/24 10:03:52;;;;;;;12.70;10.70;;;22.30;99.90;;;;;;5072752;28;20431;-73
2022/08/24 10:06:28;;;;;;;18.33;10.90;;;22.30;99.90;;;;;;5072495;28;20797;-72
2022/08/24 10:09:06;;;;;;;14.00;11.13;;;22.30;99.90;;;;;;5072877;28;20478;-72
2022/08/24 10:11:41;;;;;;;19.63;13.53;;;22.50;99.90;;;;;;5076875;28;20468;-71
2022/08/24 10:14:18;;;;;;;17.83;13.80;;;22.60;99.90;;;;;;5076944;28;20436;-72
2022/08/24 10:16:54;;;;;;;14.83;12.90;;;22.60;99.90;;;;;;5076575;28;20439;-72
2022/08/24 10:20:01;;;;;;;21.93;15.70;;;22.70;99.90;;;;;;5076604;28;20471;-71
2022/08/24 10:22:46;;;;;;;19.53;14.63;;;22.70;99.90;;;;;;5036426;28;20494;-73
2022/08/24 10:25:33;;;;;;;18.83;13.90;;;22.60;99.90;;;;;;5076442;28;20440;-72
2022/08/24 10:28:14;;;;;;;21.20;15.13;;;22.70;99.90;;;;;;5076447;28;20491;-72
2022/08/24 10:31:00;;;;;;;23.53;16.53;;;23.20;99.90;;;;;;5076230;28;20424;-72
2022/08/24 10:33:28;;;;;;;20.30;16.33;;;23.00;99.90;;;;;;5076264;28;20444;-72
2022/08/24 10:36:14;;;;;;;15.87;13.87;;;23.10;99.90;;;;;;5075814;28;20449;-71
2022/08/24 10:41:57;;;;;;;17.43;14.77;;;23.00;99.90;;;;;;5076404;28;20833;-71
2022/08/24 10:44:42;;;;;;;17.90;15.00;;;23.10;99.90;;;;;;5076866;28;20932;-72
2022/08/24 10:47:18;;;;;;;17.10;14.10;;;23.20;99.90;;;;;;5076465;28;20917;-72
2022/08/24 10:50:19;;;;;;;15.90;14.27;;;23.00;99.90;;;;;;5076356;28;20492;-73
2022/08/24 10:53:14;;;;;;;19.20;14.33;;;22.90;99.90;;;;;;5076086;28;20485;-73
2022/08/24 10:55:42;;;;;;;21.23;14.57;;;22.70;99.90;;;;;;5076029;28;20452;-72
2022/08/24 10:58:42;;;;;;;15.40;13.57;;;22.90;99.90;;;;;;5075720;28;20491;-73
2022/08/24 11:01:22;;;;;;;17.30;14.03;;;23.00;99.90;;;;;;5075905;28;20500;-72
2022/08/24 11:03:53;;;;;;;16.00;12.80;;;23.00;99.90;;;;;;5075715;28;20943;-72
2022/08/24 11:06:21;;;;;;;14.83;12.90;;;23.00;99.90;;;;;;5075648;28;20472;-71
2022/08/24 11:08:54;;;;;;;17.17;13.33;;;23.10;99.90;;;;;;5075689;28;20448;-71
2022/08/24 11:11:27;;;;;;;16.50;13.40;;;23.20;99.90;;;;;;5075482;28;20472;-71
2022/08/24 11:13:59;;;;;;;19.33;14.53;;;23.30;99.90;;;;;;5075886;28;20804;-71
2022/08/24 11:16:30;;;;;;;16.53;12.60;;;23.40;99.90;;;;;;5076162;28;20460;-71
2022/08/24 11:18:58;;;;;;;15.77;12.93;;;23.50;99.90;;;;;;5075452;28;20546;-71
2022/08/24 11:21:42;;;;;;;15.90;12.13;;;23.60;99.90;;;;;;5074218;28;20469;-71
2022/08/24 11:24:14;;;;;;;16.73;13.50;;;23.70;99.90;;;;;;5075630;28;20448;-72
2022/08/24 11:26:54;;;;;;;16.13;12.27;;;23.70;99.90;;;;;;5075364;28;20440;-72
2022/08/24 11:29:26;;;;;;;12.73;11.40;;;23.60;15.10;;;;;;5074987;28;20461;-72
2022/08/24 11:31:53;;;;;;;15.90;13.43;;;23.60;99.90;;;;;;5074883;28;20469;-72
2022/08/24 11:34:31;;;;;;;15.37;12.80;;;23.80;99.90;;;;;;5075033;28;20445;-71
2022/08/24 11:36:58;;;;;;;16.17;12.80;;;23.90;99.90;;;;;;5074955;28;20440;-71
2022/08/24 11:39:30;;;;;;;15.60;13.80;;;24.00;99.90;;;;;;5074710;28;20481;-72
2022/08/24 11:42:01;;;;;;;18.20;13.87;;;24.00;90.70;;;;;;5074953;28;20991;-71
2022/08/24 11:44:42;;;;;;;13.50;12.10;;;24.10;99.90;;;;;;5075018;28;20428;-71
2022/08/24 11:47:31;;;;;;;16.50;11.97;;;24.20;1.00;;;;;;5074960;28;20433;-71
2022/08/24 11:50:05;;;;;;;15.53;12.10;;;24.40;99.90;;;;;;5071793;28;20459;-72
2022/08/24 11:52:44;;;;;;;16.40;12.80;;;24.50;43.80;;;;;;5074559;28;20476;-72
2022/08/24 11:55:17;;;;;;;17.33;12.33;;;24.60;1.00;;;;;;5074576;28;20436;-72
2022/08/24 11:57:52;;;;;;;14.83;11.80;;;24.60;1.00;;;;;;5074624;28;20952;-72
2022/08/24 12:00:25;;;;;;;15.30;11.70;;;24.50;1.00;;;;;;5075071;28;20831;-71
2022/08/24 12:03:00;;;;;;;12.27;11.07;;;24.50;1.00;;;;;;5074444;28;20448;-72
2022/08/24 12:05:34;;;;;;;11.90;10.70;;;24.40;1.00;;;;;;5074470;28;20436;-72
2022/08/24 12:08:10;;;;;;;12.90;11.10;;;24.30;93.30;;;;;;5074071;28;20905;-71
2022/08/24 12:10:43;;;;;;;15.90;12.27;;;24.40;1.00;;;;;;5074170;28;20908;-71
2022/08/24 12:13:22;;;;;;;14.30;12.73;;;24.30;43.70;;;;;;5074726;28;20774;-71
2022/08/24 12:16:01;;;;;;;13.73;11.20;;;24.30;99.90;;;;;;5075667;28;20428;-72
2022/08/24 12:18:35;;;;;;;17.50;12.20;;;24.30;1.00;;;;;;5075098;28;20464;-72
2022/08/24 12:21:02;;;;;;;14.97;11.10;;;24.40;1.00;;;;;;5074217;28;20980;-71
2022/08/24 12:23:36;;;;;;;15.03;13.47;;;24.50;1.00;;;;;;5074285;28;20441;-72
2022/08/24 12:26:08;;;;;;;15.20;11.77;;;24.70;1.00;;;;;;5074553;28;20429;-72
2022/08/24 12:28:40;;;;;;;10.57;9.43;;;24.90;1.00;;;;;;5074258;28;20429;-72
2022/08/24 12:31:15;;;;;;;12.23;11.03;;;24.90;1.00;;;;;;5073873;28;20828;-72
2022/08/24 12:33:48;;;;;;;12.20;11.00;;;25.10;1.00;;;;;;5074181;28;20519;-73
2022/08/24 12:36:24;;;;;;;12.27;10.20;;;25.20;1.00;;;;;;5073361;28;20440;-72
2022/08/24 12:39:04;;;;;;;13.27;10.40;;;25.20;99.90;;;;;;5073873;28;20465;-72
2022/08/24 12:41:34;;;;;;;14.40;11.10;;;25.30;99.90;;;;;;5073535;28;20484;-72
2022/08/24 12:44:07;;;;;;;12.10;10.87;;;25.30;99.90;;;;;;5073889;28;20849;-72
2022/08/24 12:46:36;;;;;;;12.80;11.50;;;25.10;1.00;;;;;;5073930;28;20520;-72
2022/08/24 12:49:07;;;;;;;13.67;11.73;;;25.00;1.00;;;;;;5073315;28;20441;-73
2022/08/24 12:51:50;;;;;;;12.30;11.10;;;24.80;1.00;;;;;;5074089;28;20461;-73
2022/08/24 12:54:38;;;;;;;12.03;10.67;;;24.70;1.00;;;;;;5073784;28;20472;-73
2022/08/24 12:57:30;;;;;;;14.30;10.27;;;24.50;7.90;;;;;;5073552;28;20810;-73
2022/08/24 13:00:02;;;;;;;11.50;10.30;;;24.50;59.90;;;;;;5073544;28;20468;-72
2022/08/24 13:02:37;;;;;;;12.30;10.83;;;24.50;1.00;;;;;;5073998;28;20461;-72
2022/08/24 13:05:11;;;;;;;11.20;10.03;;;24.70;50.60;;;;;;5073473;28;20440;-73